WFO Denver/Boulder


Hot-Air Balloon Forecast for Colorado
National Weather Service Denver/Boulder, Colorado
0305 MST Friday, November 28, 2014

COLORADO SYNOPSIS VALID 28/0600Z-28/1800Z MODERATE WESTERLY FLOW 
ALOFT OVER THE AREA WITH MIDDLE AND HIGH LEVEL MOISTURE.  SURFACE 
LEE TROUGH EAST OF MOUNTAINS.

* * * * * Northeast Colorado * * * * *

METAR KFNL 280955Z AUTO 33003KT 10SM CLR 03/M07 A2999 RMK AO1
METAR KFNL 280935Z AUTO 35006KT 10SM CLR 07/M09 A3000 RMK AO1
METAR KFNL 280915Z AUTO 24009KT 10SM CLR 14/M08 A3000 RMK AO1

METAR KGXY 280955Z AUTO 12003KT 10SM CLR M04/M09 A3000 RMK AO1
METAR KGXY 280935Z AUTO 00000KT 10SM CLR M03/M08 A3001 RMK AO1
METAR KGXY 280915Z AUTO 04004KT 10SM CLR M02/M07 A3001 RMK AO1

METAR KLMO 280955Z AUTO 18006KT 140V270 10SM CLR 11/M09 A3000 RMK AO2
       T01111086
METAR KLMO 280935Z AUTO 19009KT 10SM CLR 09/M08 A3000 RMK AO2
       T00891080
METAR KLMO 280915Z AUTO 26008KT 10SM CLR 14/M11 A3000 RMK AO2
       T01431107

METAR KBDU 280955Z AUTO 06005KT 10SM CLR 11/M09 A2998 RMK AO2
METAR KBDU 280935Z AUTO 13003KT 10SM CLR 10/M08 A2999 RMK AO2
METAR KBDU 280915Z AUTO 02004KT 10SM CLR 10/M08 A3000 RMK AO2

METAR KEIK 280955Z AUTO 11003KT 10SM CLR 01/M06 A2998 RMK AO2
       T00141057
METAR KEIK 280935Z AUTO 00000KT 10SM CLR 00/M05 A2999 RMK AO2
       T00041055
METAR KEIK 280915Z AUTO 00000KT 10SM CLR 02/M06 A3000 RMK AO2
       T00181057

KBJC 280958Z 2810/2906 20010KT P6SM SCT150 BKN200
     FM281200 26015KT P6SM FEW080 BKN150
     FM281700 28018G28KT P6SM SCT120 BKN220
     FM290300 25012KT P6SM FEW120 SCT220
METAR KBJC 280954Z AUTO 19004KT 10SM CLR 11/M10 A3003 RMK AO2
METAR KBJC 280935Z AUTO 00000KT 10SM CLR 11/M09 A3003 RMK AO2
METAR KBJC 280915Z AUTO 24003KT 10SM CLR 10/M08 A3004 RMK AO2

KDEN 280812Z 2808/2912 22010KT P6SM SCT140 BKN220
     FM281800 24012KT P6SM FEW090 SCT140 BKN220
     FM290100 20010KT P6SM FEW120 SCT220
METAR KDEN 280953Z 24006KT 10SM SCT250 09/M09 A3001 RMK AO2 SLP113
       T00941094 $
METAR KDEN 280853Z 24009KT 10SM FEW200 SCT250 09/M09 A3003 RMK AO2
       SLP122 T00891094 55010 $
METAR KDEN 280753Z 22009KT 10SM SCT220 11/M09 A3003 RMK AO2 SLP119
       T01061089 $

METAR KFTG 280957Z AUTO 21010G18KT 10SM CLR 12/M10 A3002 RMK AO2
METAR KFTG 280937Z AUTO 21012G19KT 10SM CLR 12/M09 A3002 RMK AO2
METAR KFTG 280916Z AUTO 22010KT 10SM CLR 07/M07 A3003 RMK AO2

KBKF 2809/2915 18009KT 9999 SCT200 QNH2998INS
      BECMG 2905/2906 21010G15KT 9999 FEW200 QNH2986INS
      BECMG 2911/2912 VRB06KT 9999 FEW200 QNH2980INS TX20/2821Z
      TN06/2812Z
METAR KBKF 280958Z 17008KT 10SM FEW220 09/M10 A3003 RMK AO2A SLP123
        T00891102
METAR KBKF 280858Z 20006KT 10SM FEW220 09/M10 A3005 RMK AO2A SLP126
       T00941103 57013
METAR KBKF 280758Z 18006KT 10SM FEW220 09/M09 A3006 RMK AO2A SLP133
       T00881087

KAPA 280520Z 2806/2906 15008KT P6SM SCT140 BKN220
     FM281800 24012KT P6SM FEW090 SCT120 BKN220
     FM290100 19010KT P6SM FEW120 SCT220
METAR KAPA 280953Z 16011KT 10SM FEW150 FEW220 06/M09 A3004 RMK AO2
       SLP146 T00611094
METAR KAPA 280853Z 16009KT 10SM FEW220 07/M09 A3006 RMK AO2 SLP146
       T00671089 56013
METAR KAPA 280753Z 17009KT 10SM FEW210 06/M08 A3006 RMK AO2 SLP149
       T00561083

METAR KMNH 280953Z AUTO 20008KT 10SM CLR 02/M10 A3010 RMK AO2
METAR KMNH 280934Z AUTO 20007KT 10SM CLR 02/M11 A3012 RMK AO2
METAR KMNH 280914Z AUTO 21006KT 10SM CLR 03/M11 A3012 RMK AO2

METAR KFMM 280955Z AUTO 27010KT 10SM CLR 03/M05 A3000 RMK AO2
       T00251046
METAR KFMM 280935Z AUTO 29007KT 10SM CLR 03/M05 A3000 RMK AO2
       T00261048
METAR KFMM 280915Z AUTO 28009KT 10SM CLR 03/M05 A3000 RMK AO2
       T00251047

METAR KSTK 280950Z AUTO 20008KT 10SM CLR 00/M02 A2996 RMK AO2
METAR KSTK 280930Z AUTO 19004KT 10SM CLR 00/M02 A2997 RMK AO2
METAR KSTK 280910Z AUTO 20007KT 10SM CLR 01/M01 A2997 RMK AO2

METAR KAKO 280953Z AUTO 23011KT 10SM CLR 08/M06 A2998 RMK AO2 SLP134
       T00831056
METAR KAKO 280853Z AUTO 22012KT 10SM CLR 08/M06 A3000 RMK AO2 SLP141
       T00781056 56014
METAR KAKO 280753Z AUTO 22012KT 10SM CLR 06/M04 A3000 RMK AO2 SLP146
       T00611044

METAR KLIC 280955Z AUTO 01009KT 10SM CLR M03/M08 A3005 RMK AO2 SLP157
       T10281078
METAR KLIC 280855Z AUTO 34006KT 10SM CLR M03/M08 A3007 RMK AO2 SLP161
       T10331078 56011
METAR KLIC 280755Z AUTO 35003KT 10SM CLR 01/M08 A3007 RMK AO2 SLP150
       T00111078

METAR KHEQ 280955Z AUTO 25007KT 10SM CLR 01/M02 A2995 RMK AO2
METAR KHEQ 280935Z AUTO 27007KT 10SM CLR 00/M03 A2995 RMK AO2
METAR KHEQ 280915Z AUTO 27006KT 10SM CLR 01/M02 A2996 RMK AO2

METAR K2V5 280955Z AUTO 27006KT 10SM CLR 01/M03 A2996 RMK AO2
       T00071033
METAR K2V5 280935Z AUTO 25007KT 10SM CLR 00/M03 A2997 RMK AO2
       T00021033
METAR K2V5 280915Z AUTO 24007KT 10SM CLR 01/M03 A2998 RMK AO2
       T00081033

METAR KITR 280953Z AUTO 24008KT 10SM CLR 01/M07 A3000 RMK AO2 SLP146
       T00111067
METAR KITR 280853Z AUTO 27009KT 10SM CLR 01/M07 A3002 RMK AO2 SLP150
       T00111067 56009
METAR KITR 280753Z AUTO 26006KT 10SM CLR 02/M07 A3003 RMK AO2 SLP154
       T00171067

Sunrise/Sunset for 11/28/2014
Fort Collins - 07:01:26 MST / 16:35:07 MST
Denver       - 06:58:44 MST / 16:36:58 MST
Sterling     - 06:54:17 MST / 16:27:26 MST

Denver/Boulder (KFTG) 11/28/14 09:55 UTC
Radar VAD winds      Height      Dir/Spd(kt)
                   5900 FT MSL...230/006

Denver/Boulder Aviation Discussion
Issued at 0317 UTC Friday, November 28, 2014

.AVIATION...(FOR THE TAFS THROUGH 06Z FRIDAY EVENING)
ISSUED AT 812 PM MST THU NOV 27 2014
NO CHANGES AT THIS TIME...VFR CONDITIONS WILL PREVAIL WITH MID
AND CLOUDS STREAMING ACROSS CO. SOUTH TO SOUTHWEST WINDS ARE
EXPECTED TO PREVAIL TONIGHT AND FRIDAY. AT KBJC...WEST WIND GUSTS
TO 30 KNOTS WILL BE POSSIBLE THE NEXT 24 HOURS.


* * * * * Southeast Colorado * * * * *

METAR K4BM 280954Z AUTO 28016G26KT 10SM CLR 01/M17 A3028 RMK AO2
METAR K4BM 280934Z AUTO 28019G31KT 10SM CLR 01/M17 A3028 RMK AO2
METAR K4BM 280914Z AUTO 28020G34KT 10SM CLR 01/M17 A3028 RMK AO2

METAR KAFF 280958Z AUTO 24004KT 10SM CLR 05/M11 A3011 RMK AO2 SLP150
       T00531108
METAR KAFF 280858Z AUTO VRB03KT 10SM CLR 06/M12 A3013 RMK AO2 SLP152
       T00621118 55005
METAR KAFF 280758Z AUTO VRB06KT 10SM CLR 13/M13 A3013 RMK AO2 SLP137
       T01281135

KCOS 280537Z 2806/2906 36007KT P6SM BKN200
     FM281800 16010KT P6SM FEW120 BKN200
     FM282200 22008KT P6SM FEW120 SCT200
     FM290200 35008KT P6SM SCT200
METAR KCOS 280954Z 11005KT 10SM SCT220 BKN250 08/M11 A3011 RMK AO2
       SLP148 T00831106
METAR KCOS 280854Z 10003KT 10SM FEW220 SCT250 11/M11 A3013 RMK AO2
       SLP147 T01061111 56008
METAR KCOS 280754Z 23006KT 10SM FEW250 11/M11 A3013 RMK AO2 SLP145
       T01111111



KFCS 2805/2911 33009KT 9999 SCT200 QNH3015INS
     BECMG 2817/2818 16012KT 9999 FEW220 QNH3001INS
     BECMG 2905/2906 32009KT 9999 FEW240 QNH2994INS TX21/2821Z
     TNM01/2813Z
METAR KFCS 280958Z AUTO 34004KT 10SM CLR 06/M09 A3008 RMK AO2 SLP168
       T00581092
METAR KFCS 280858Z AUTO VRB03KT 10SM CLR 07/M10 A3010 RMK AO2 SLP171
       T00701096 55010
METAR KFCS 280758Z AUTO 26009KT 10SM CLR 10/M09 A3010 RMK AO2 SLP161
       T01001095

KPUB 280537Z 2806/2906 27008KT P6SM BKN200
     FM281800 28010KT P6SM FEW150 BKN200
     FM282200 29012KT P6SM SCT200
     FM290200 30007KT P6SM SCT200
METAR KPUB 280953Z AUTO 24006KT 10SM CLR 00/M06 A3008 RMK AO2 SLP159
       T00001061
METAR KPUB 280853Z AUTO 27009KT 10SM CLR 01/M06 A3009 RMK AO2 SLP161
       T00111061 56009
METAR KPUB 280753Z AUTO 26011KT 10SM CLR 04/M06 A3010 RMK AO2 SLP163
       T00441056

METAR KVTP 280951Z AUTO 20013G21KT 180V250 10SM CLR 00/M11 A3030 RMK
       AO2
METAR KVTP 280931Z AUTO 20010G20KT 160V250 10SM CLR 01/M11 A3031 RMK
       AO2
METAR KVTP 280909Z AUTO 20009G20KT 10SM CLR 00/M10 A3032 RMK AO2

METAR KTAD 280954Z AUTO 24016KT 10SM CLR 05/M06 A3014 RMK AO2 SLP170
       T00501061
METAR KTAD 280854Z AUTO 25015KT 10SM CLR 05/M06 A3015 RMK AO2 SLP172
       T00501056 58012
METAR KTAD 280754Z AUTO 24013KT 10SM CLR 04/M06 A3017 RMK AO2 SLP180
       T00391056

METAR KLHX 280953Z AUTO 21003KT 10SM CLR 04/M06 A3005 RMK AO2 SLP148
       T00441056
METAR KLHX 280853Z AUTO 29007KT 10SM CLR 04/M05 A3006 RMK AO2 SLP151
       T00391050 58006
METAR KLHX 280753Z AUTO 00000KT 10SM CLR 04/M05 A3007 RMK AO2 SLP158
       T00441050

METAR KLAA 280953Z AUTO 25004KT 10SM CLR M03/M07 A3002 RMK AO2 SLP159
       T10281067
METAR KLAA 280853Z AUTO 27005KT 10SM CLR 00/M06 A3004 RMK AO2 SLP158
       T00001056 55005
METAR KLAA 280753Z AUTO 22004KT 10SM CLR 00/M06 A3003 RMK AO2 SLP161
       T00001061

METAR KSPD 280956Z AUTO 29011KT 06/M08 A3005 RMK AO1 SLP139
       T00561078
METAR KSPD 280856Z AUTO 29010KT 07/M08 A3005 RMK AO1 SLP139 T00721078
       58010
METAR KSPD 280756Z AUTO 29011KT 09/M08 A3006 RMK AO1 SLP145
       T00891078

Sunrise/Sunset for 11/28/2014
Burlington - 06:46:50 MST / 16:27:21 MST
Pueblo     - 06:53:29 MST / 16:39:29 MST
Lamar      - 06:45:01 MST / 16:31:57 MST

Pueblo (KPUX) 11/28/14 09:54 UTC
Radar VAD winds      Height      Dir/Spd(kt)
                   6300 FT MSL...197/004
                   5700 FT MSL...260/011

Pueblo Aviation Discussion
Issued at 0543 UTC Friday, November 28, 2014

.AVIATION...(FOR THE 06Z TAFS THROUGH 06Z FRIDAY NIGHT)
ISSUED AT 1041 PM MST THU NOV 27 2014
VFR CONDITIONS WILL PERSIST THROUGH FRIDAY FOR THE THREE TAF
SITES. THE MAIN AVN CONCERN WILL BE STRENGTHENING W WINDS
ALOFT...WHICH WILL LEAD TO MDT TB ALONG AND E OF THE CREST OF THE
WETS...SANGRES AND RAMPART RANGE TODAY. WINDS AT RIDGE TOP WILL
CONTINUE TO INCREASE TONIGHT AND TB COULD BE SVR AS MTN WAVE
INCREASE OVERNIGHT INTO SAT MORNING. AN EVEN STRONGER MT WAVE
EVENT IS EXPECTED SAT NIGHT INTO SUN MORNING. ROSE


* * * * * Northwest Colorado * * * * *

METAR KCAG 280953Z AUTO 00000KT 10SM CLR M04/M07 A3020 RMK AO2 SLP239
       T10441067 $
METAR KCAG 280853Z AUTO 00000KT 10SM CLR M03/M05 A3020 RMK AO2 SLP236
       T10331050 58012 $
METAR KCAG 280753Z AUTO 00000KT 10SM CLR M04/M06 A3021 RMK AO2 SLP240
       T10391056 $

METAR KHDN 280955Z AUTO 12011KT 10SM CLR M03/M07 A3020 RMK AO1
METAR KHDN 280935Z AUTO 12010KT 10SM CLR M02/M07 A3020 RMK AO1
METAR KHDN 280915Z AUTO 11010KT 10SM CLR M02/M06 A3020 RMK AO1


METAR K33V 280955Z AUTO 12010KT 10SM CLR M01/M08 A3020 RMK AO2
METAR K33V 280935Z AUTO 13008KT 10SM CLR M01/M08 A3021 RMK AO2
METAR K33V 280915Z AUTO 12007KT 10SM CLR M01/M08 A3020 RMK AO2

METAR KEEO 280953Z AUTO 00000KT 10SM CLR M01/M06 A3021 RMK AO2 SLP215
       T10111056
METAR KEEO 280853Z AUTO 07004KT 10SM CLR 01/M06 A3021 RMK AO2 SLP207
       T00111056 56013
METAR KEEO 280753Z AUTO 07003KT 10SM CLR 01/M06 A3023 RMK AO2 SLP213
       T00061056

METAR K20V 280955Z AUTO 00000KT 10SM CLR M05/M06 A3026 RMK AO2
METAR K20V 280935Z AUTO 00000KT 10SM CLR M04/M06 A3026 RMK AO2
METAR K20V 280915Z AUTO 00000KT 10SM CLR M04/M06 A3027 RMK AO2


KGJT 280524Z 2806/2906 10004KT P6SM BKN200
     FM282000 31004KT P6SM SCT250
     FM290200 07005KT P6SM SKC
METAR KGJT 280953Z AUTO 05005KT 10SM CLR M03/M06 A3025 RMK AO2 SLP239
       T10281056
METAR KGJT 280853Z AUTO 10004KT 10SM CLR M03/M06 A3026 RMK AO2 SLP242
       T10281056 56008
METAR KGJT 280753Z AUTO 09005KT 10SM CLR 00/M04 A3026 RMK AO2 SLP240
       T00001044

KRIL 280524Z 2806/2906 00000KT P6SM BKN250
     FM282000 29004KT P6SM SCT250
     FM290300 00000KT P6SM SKC
METAR KRIL 280953Z AUTO 00000KT 10SM CLR M01/M03 A3027 RMK AO2 SLP248
       T10111033
METAR KRIL 280853Z AUTO 00000KT 10SM CLR M01/M03 A3028 RMK AO2 SLP251
       T10061028 56009
METAR KRIL 280753Z AUTO 00000KT 10SM CLR 00/M03 A3028 RMK AO2 SLP254
       T00001028

METAR K5SM 280956Z AUTO 00000KT 10SM SCT120 00/M06 A3036 RMK AO2
METAR K5SM 280935Z AUTO 00000KT 10SM BKN120 M01/M05 A3036 RMK AO2
METAR K5SM 280916Z AUTO 00000KT 10SM BKN120 00/M05 A3037 RMK AO2

KEGE 280524Z 2806/2906 11003KT P6SM SCT250
     FM281900 25008G15KT P6SM FEW250
     FM290100 12005KT P6SM SKC AMD LTD TO CLD VIS AND WIND TIL
      281300
METAR KEGE 280955Z AUTO 10003KT 10SM CLR M03/M04 A3028 RMK AO1
METAR KEGE 280935Z AUTO 09004KT 10SM CLR M03/M04 A3029 RMK AO1
METAR KEGE 280915Z AUTO 00000KT 10SM CLR M03/M04 A3029 RMK AO1

KASE 280524Z 2806/2906 20005KT P6SM SCT180
     FM281700 34005KT P6SM FEW250
     FM290000 20004KT P6SM SKC
METAR KASE 280953Z 21006KT 10SM CLR M01/M07 A3026 RMK AO2 SLP213
       T10111072
METAR KASE 280853Z 20003KT 10SM CLR 00/M07 A3027 RMK AO2 SLP208
       T00001067 56015
METAR KASE 280753Z 21006KT 10SM CLR 00/M07 A3028 RMK AO2 SLP216
       T00001067

METAR KCCU 280955Z AUTO 25027G37KT 2 1/2SM HZ CLR 01/M16 A3035 RMK
       AO2
METAR KCCU 280935Z AUTO 25024G32KT 7SM CLR 01/M16 A3037 RMK AO2
METAR KCCU 280915Z AUTO 25029G35KT 4SM HZ CLR 01/M16 A3036 RMK AO2

METAR KLXV 280953Z AUTO 04007KT 10SM FEW110 M01/M13 A3029 RMK AO2 SLP173
       T10061133
METAR KLXV 280853Z AUTO 04007KT 10SM CLR 01/M13 A3030 RMK AO2 SLP167
       T00061133 56014
METAR KLXV 280753Z AUTO 03008KT 10SM CLR 00/M13 A3032 RMK AO2 SLP177
       T00001128

Sunrise/Sunset for 11/28/2014
Rangely           - 07:14:59 MST / 16:51:15 MST
Grand Junction    - 07:11:24 MST / 16:53:03 MST
Steamboat Springs - 07:08:14 MST / 16:42:21 MST

Grand Junction (KGJX) 11/28/14 09:54 UTC
Radar VAD winds      Height      Dir/Spd(kt)
                  26000 FT MSL...281/063
                  25000 FT MSL...282/058
                  24000 FT MSL...290/050
                  22000 FT MSL...280/059
                  10400 FT MSL...240/021

Grand Junction Aviation Discussion
Issued at 0514 UTC Friday, November 28, 2014

.AVIATION...(FOR THE 06Z TAFS THROUGH 06Z FRIDAY NIGHT)
ISSUED AT 1011 PM MST THU NOV 27 2014
VFR CONDITIONS WILL PREVAIL OVER THE NEXT 24 HOURS. LIGHT
MECHANICAL TURBULENCE MAY EXIST NEAR THE WYOMING BORDER ON FRIDAY
AFTERNOON.


* * * * * Southwest Colorado * * * * *

METAR KAJZ 280955Z AUTO 00000KT 10SM CLR M02/M05 A3026 RMK AO2
       T10161051
METAR KAJZ 280935Z AUTO 00000KT 10SM CLR M02/M05 A3027 RMK AO2
       T10161051
METAR KAJZ 280915Z AUTO 00000KT 10SM CLR M01/M05 A3027 RMK AO2
       T10151051

KMTJ 280524Z 2806/2906 15005KT P6SM SCT250
     FM281800 34004KT P6SM FEW250
     FM290200 15007KT P6SM SKC
METAR KMTJ 280953Z AUTO 17006KT 10SM CLR M01/M06 A3027 RMK AO2 SLP228
       T10111061
METAR KMTJ 280853Z AUTO 12005KT 10SM CLR M02/M06 A3028 RMK AO2 SLP233
       T10221061 56013
METAR KMTJ 280753Z AUTO 18009KT 10SM CLR M01/M06 A3029 RMK AO2 SLP239
       T10111056

METAR KGUC 280955Z AUTO 00000KT 10SM CLR M11/M14 A3039 RMK AO1
METAR KGUC 280935Z AUTO 00000KT 10SM CLR M11/M13 A3040 RMK AO1
METAR KGUC 280915Z AUTO 00000KT 10SM CLR M10/M13 A3040 RMK AO1

METAR K7BM 280954Z AUTO 28035G48KT 10SM CLR 07/M20 A3024 RMK AO2
METAR K7BM 280934Z AUTO 30018G39KT 260V330 10SM CLR 07/M17 A3025 RMK
       AO2
METAR K7BM 280914Z AUTO 28028G43KT 10SM CLR 07/M18 A3026 RMK AO2

METAR KAEJ 280955Z AUTO 36010G17KT 10SM CLR 07/M14 A3021 RMK AO2
       T00671137
METAR KAEJ 280935Z AUTO 01005KT 10SM CLR 07/M14 A3023 RMK AO2
       T00731141
METAR KAEJ 280915Z AUTO 01006KT 10SM CLR 08/M14 A3023 RMK AO2
       T00771140

METAR KANK 280955Z AUTO 23012G19KT 10SM CLR 08/M13 A3026 RMK AO1
       T00831130
METAR KANK 280935Z AUTO 23011G19KT 10SM CLR 08/M12 A3027 RMK AO1
       T00801124
METAR KANK 280915Z AUTO 23011G17KT 10SM CLR 09/M13 A3029 RMK AO1
       T00921129

METAR KMYP 280949Z AUTO 27034G41KT 10SM CLR M02/M13 A3046 RMK AO2
METAR KMYP 280936Z AUTO 27038G42KT 10SM CLR M02/M13 A3047 RMK AO2
METAR KMYP 280915Z AUTO 28032G39KT 10SM CLR M02/M13 A3047 RMK AO2

METAR KAIB 280955Z AUTO 11005KT 10SM CLR 00/M06 A3032 RMK AO2
METAR KAIB 280935Z AUTO 11006KT 10SM CLR M01/M05 A3032 RMK AO2
METAR KAIB 280915Z AUTO 13003KT 10SM CLR 00/M05 A3032 RMK AO2

KTEX 280524Z 2806/2906 14004KT P6SM SCT200
     FM282000 24008KT P6SM SKC
     FM290000 12007KT P6SM SKC
METAR KTEX 280955Z AUTO 11006KT 10SM CLR 01/M10 A3039 RMK AO2
       T00061100
METAR KTEX 280935Z AUTO 13006KT 10SM CLR 02/M10 A3040 RMK AO2
       T00181099
METAR KTEX 280915Z AUTO 11007KT 10SM CLR 01/M10 A3040 RMK AO2
       T00121098

METAR K04V 280951Z AUTO 34007KT 10SM CLR M05/M08 A3031 RMK AO2
METAR K04V 280930Z AUTO 32008KT 10SM CLR M05/M08 A3031 RMK AO2
METAR K04V 280908Z AUTO 33006KT 10SM CLR M06/M08 A3031 RMK AO2

METAR KCEZ 280953Z AUTO 07006KT 10SM CLR M05/M08 A3031 RMK AO2 SLP250
       T10501078
METAR KCEZ 280853Z AUTO 06007KT 10SM CLR M04/M08 A3031 RMK AO2 SLP250
       T10441078 56007
METAR KCEZ 280753Z AUTO 06004KT 10SM CLR M04/M08 A3032 RMK AO2 SLP252
       T10441083

KDRO 280524Z 2806/2906 05003KT P6SM SKC
     FM282000 23007KT P6SM SKC
     FM290200 02004KT P6SM SKC
METAR KDRO 280953Z AUTO 03003KT 10SM CLR M06/M08 A3032 RMK AO2 SLP269
       T10561083
METAR KDRO 280853Z AUTO 04004KT 10SM CLR M06/M08 A3033 RMK AO2 SLP272
       T10561083 58007
METAR KDRO 280753Z AUTO 00000KT 10SM CLR M05/M08 A3034 RMK AO2 SLP275
       T10501078

METAR KPSO 280955Z AUTO 00000KT 10SM CLR M04/M08 A3035 RMK AO2
       T10401076
METAR KPSO 280935Z AUTO 00000KT 10SM CLR M04/M07 A3035 RMK AO2
       T10381069
METAR KPSO 280915Z AUTO 00000KT 10SM CLR M04/M07 A3036 RMK AO2
       T10431069

METAR KCPW 280955Z AUTO 10SM CLR M02/M15 A3043 RMK AO2
METAR KCPW 280934Z AUTO 10SM CLR M02/M13 A3044 RMK AO2
METAR KCPW 280907Z AUTO 10SM CLR M02/M13 A3045 RMK AO2

KALS 280537Z 2806/2906 VRB06KT P6SM SCT200
     FM281800 23008KT P6SM FEW120 SCT200
     FM290200 VRB05KT P6SM SCT200
METAR KALS 280952Z AUTO 00000KT 10SM CLR M11/M14 A3029 RMK AO2 SLP263
       T11111139
METAR KALS 280852Z AUTO 00000KT 10SM CLR M11/M13 A3030 RMK AO2 SLP266
       T11061133 56008
METAR KALS 280752Z AUTO 26004KT 10SM CLR M09/M13 A3031 RMK AO2 SLP268
       T10941128

Sunrise/Sunset for 11/28/2014
Vail    - 07:04:05 MST / 16:42:47 MST
Durango - 07:04:01 MST / 16:54:58 MST
Alamosa - 06:56:29 MST / 16:46:32 MST

Grand Junction (KGJX) 11/28/14 09:54 UTC
Radar VAD winds      Height      Dir/Spd(kt)
                  26000 FT MSL...281/063
                  25000 FT MSL...282/058
                  24000 FT MSL...290/050
                  22000 FT MSL...280/059
                  10400 FT MSL...240/021

Grand Junction Aviation Discussion
Issued at 0514 UTC Friday, November 28, 2014

.AVIATION...(FOR THE 06Z TAFS THROUGH 06Z FRIDAY NIGHT)
ISSUED AT 1011 PM MST THU NOV 27 2014
VFR CONDITIONS WILL PREVAIL OVER THE NEXT 24 HOURS. LIGHT
MECHANICAL TURBULENCE MAY EXIST NEAR THE WYOMING BORDER ON FRIDAY
AFTERNOON.


* * * * * Arizona * * * * *

KPGA 280522Z 2806/2906 VRB05KT P6SM SCT250
METAR KPGA 280953Z AUTO 27004KT 10SM CLR 05/M08 A3024 RMK AO2 SLP222
       T00501083 TSNO
METAR KPGA 280853Z AUTO 00000KT 8SM CLR 04/M08 A3025 RMK AO2 SLP226
       T00391083 58006 TSNO
METAR KPGA 280753Z AUTO 27004KT 10SM CLR 05/M08 A3026 RMK AO2 SLP227
       T00501083 TSNO


Flagstaff (KFSX) 11/28/14 09:50 UTC
Radar VAD winds      Height      Dir/Spd(kt)
                  10000 FT MSL...243/021
                   8400 FT MSL...215/023
                   7800 FT MSL...192/021

Flagstaff Aviation Discussion
Issued at 0430 UTC Friday, November 28, 2014

.AVIATION...FOR THE 06Z PACKAGE...EXPECT VFR CONDITIONS OVER THE 
NEXT 24 HOURS WITH SCT-BKN250. LIGHT SFC WINDS THROUGH 17Z FRI 
BECOMING S-SW 5-15KT...THEN LIGHT AFTER 02Z SATURDAY. AVIATION 
DISCUSSION NOT UPDATED FOR AMENDMENTS.


* * * * * Utah * * * * *

KSLC 280859Z 2809/2912 14008KT P6SM FEW150
     FM281400 17010G18KT P6SM SCT200
     FM282100 18010KT P6SM FEW200
METAR KSLC 280953Z 11009KT 10SM BKN200 08/M04 A3006 RMK AO2 SLP160
       T00781044
METAR KSLC 280853Z COR 11007KT 10SM BKN200 07/M04 A3007 RMK AO2 SLP164
       T00671039 58010
METAR KSLC 280853Z 11007KT 10SM CLR 07/M04 A3007 RMK AO2 SLP164
       T00671039 58010

KVEL 280524Z 2806/2906 29005KT P6SM BKN250
     FM281600 VRB03KT P6SM FEW250
     FM290100 28005KT P6SM SKC
METAR KVEL 280953Z AUTO 28005KT 10SM CLR M02/M06 A3019 RMK AO2 SLP222
       T10171061
METAR KVEL 280853Z AUTO 28006KT 10SM CLR M01/M06 A3019 RMK AO2 SLP222
       T10111056 56007
METAR KVEL 280753Z AUTO 28005KT 10SM CLR M01/M05 A3020 RMK AO2 SLP222
       T10111050

METAR KPUC 280953Z AUTO 05003KT 10SM CLR M02/M06 A3024 RMK AO2 SLP257
       T10221061
METAR KPUC 280853Z AUTO 01007KT 10SM CLR M01/M06 A3025 RMK AO2 SLP253
       T10061061 56009
METAR KPUC 280753Z AUTO 01006KT 10SM CLR M01/M06 A3025 RMK AO2 SLP259
       T10061056

KCNY 280524Z 2806/2906 00000KT P6SM SCT250
     FM281900 31004KT P6SM SKC
METAR KCNY 280953Z AUTO 00000KT 10SM CLR M04/M09 A3023 RMK AO2 SLP242
       T10391094
METAR KCNY 280853Z AUTO 26004KT 10SM CLR M03/M08 A3024 RMK AO2 SLP243
       T10281078 56008
METAR KCNY 280753Z AUTO 00000KT 10SM CLR M02/M08 A3025 RMK AO2 SLP244
       T10221078


Salt Lake City (KMTX) 11/28/14 09:51 UTC
Radar VAD winds      Height      Dir/Spd(kt)
                  16000 FT MSL...277/008
                  14000 FT MSL...048/001
                  12800 FT MSL...289/004
                  12000 FT MSL...344/002
                  11000 FT MSL...277/004
                  11000 FT MSL...172/001
                  10000 FT MSL...026/001
                   9300 FT MSL...035/001
                   9000 FT MSL...011/001
                   8000 FT MSL...299/003
                   7600 FT MSL...046/000
                   7500 FT MSL...224/004
                   7000 FT MSL...198/008
                   6900 FT MSL...242/013

Salt Lake City Aviation Discussion
Issued at 0448 UTC Friday, November 28, 2014

.AVIATION...AT THE SLC TERMINAL...OPERATIONAL WEATHER CONCERNS ARE 
MINIMAL. SOUTHEAST WINDS WILL PREVAIL THROUGH THE TAF PERIOD WITH 
WINDS BECOMING GUSTY BY 14Z...ALTHOUGH THERE IS A 20 PERCENT CHANCE 
THAT THESE GUSTY WINDS MAY DEVELOP BY 12-13Z.


* * * * * Wyoming * * * * *

KEVW 280533Z 2806/2906 23011KT P6SM BKN180
     FM281700 23015G25KT P6SM SCT180
     FM290100 23012KT P6SM SCT180=
METAR KEVW 280953Z AUTO 22011KT 10SM CLR 04/M09 A3014 RMK AO2 SLP161
       T00441089
METAR KEVW 280853Z AUTO 23009KT 10SM CLR 04/M09 A3015 RMK AO2 SLP166
       T00441089 58008
METAR KEVW 280753Z AUTO 23011KT 10SM CLR 04/M08 A3016 RMK AO2 SLP172
       T00391078

KRKS 280540Z 2806/2906 25014G20KT P6SM FEW120 SCT200 WS018/27035KT
     FM290500 24020KT P6SM FEW100 SCT200 WS018/26045KT
METAR KRKS 280954Z AUTO 25012KT 10SM CLR 03/M08 A3012 RMK AO2 SLP173
       T00331078
METAR KRKS 280854Z AUTO 25010KT 10SM CLR 03/M07 A3012 RMK AO2 SLP177
       T00331072 56009
METAR KRKS 280754Z AUTO 24013KT 10SM CLR 04/M07 A3012 RMK AO2 SLP173
       T00441072

KRWL 280520Z 2806/2906 25015G25KT P6SM SCT150 SCT250
     FM281500 23024G37KT P6SM SCT250
     FM290100 23015G25KT P6SM SCT250
METAR KRWL 280953Z AUTO 27021KT 10SM CLR 07/M09 A3005 RMK AO2 WSHFT 0857
       SLP133 T00671089
SPECI KRWL 280917Z AUTO 28015KT 10SM CLR 07/M08 A3007 RMK AO2 WSHFT 0857
       T00671083
METAR KRWL 280853Z AUTO VRB04KT 10SM CLR 05/M08 A3008 RMK AO2 SLP148
       T00501078 58014

KLAR 280520Z 2806/2906 24018G28KT P6SM SCT250
     FM281600 24026G38KT P6SM SCT250
     FM290100 24015G25KT P6SM SCT250
METAR KLAR 280953Z AUTO 23010KT 10SM CLR 04/M08 A3008 RMK AO2 SLP136
       T00441083
METAR KLAR 280853Z AUTO 20012KT 10SM CLR 03/M08 A3010 RMK AO2 SLP148
       T00331078 56014
METAR KLAR 280753Z AUTO 23015KT 10SM FEW120 06/M08 A3011 RMK AO2 PK WND
       23030/0710 SLP144 T00561078

KCYS 280520Z 2806/2906 28025G35KT P6SM SCT250
     FM290100 26015G25KT P6SM FEW250
METAR KCYS 280953Z AUTO 27010G20KT 10SM CLR 11/M09 A3002 RMK AO2 SLP112
       T01111094
METAR KCYS 280853Z AUTO 23007KT 10SM CLR 10/M09 A3002 RMK AO2 SLP113
       T01001089 55005
METAR KCYS 280753Z AUTO 26016G25KT 10SM CLR 11/M08 A3001 RMK AO2 PK WND
       28031/0726 SLP109 T01111083

Riverton (KRIW) 11/28/14 09:50 UTC
Radar VAD winds      Height      Dir/Spd(kt)
                  10000 FT MSL...258/019
                   9000 FT MSL...275/036
                   8000 FT MSL...282/025
                   7000 FT MSL...290/021
                   6600 FT MSL...292/017
                   6000 FT MSL...321/010
                   6000 FT MSL...321/009

Cheyenne (KCYS) 11/28/14 09:46 UTC
Radar VAD winds      Height      Dir/Spd(kt)
                   9000 FT MSL...272/052
                   8000 FT MSL...267/044

Riverton Aviation Discussion
Issued at 0647 UTC Friday, November 28, 2014

.AVIATION.../06Z ISSUANCE/
EAST OF THE DIVIDE...KCOD/KCPR/KLND/KRIW/KWRL ROUTES
THE MAIN HAZARD THROUGH THE PERIOD WILL BE LLWS ACROSS THE AREA WITH 
VFR CONDITIONS PREVAILING THROUGH 12Z SATURDAY.
STRONG WEST WIND AT 50-60KT AT FL080-100 WILL CONTINUE TO CAUSE 
AREAS OF LLWS AND MDT-SVR TURBULENCE ACROSS THE AREA THROUGH FRIDAY 
NIGHT.  MOUNTAIN WAVE ACTIVITY WITH SOME OF THESE STRONGER WINDS 
MIXING DOWN THE EAST SLOPES OF THE DIVIDE WILL PRODUCE ERRATIC WIND 
GUSTS OVER 50KTS VCNTY KCOD...WITH THESE STRONGER WINDS SURFACING 
BELOW 6KFT BECOMING MORE LIKELY VCNTY KDUB-KLND AFTER 00Z SATURDAY.  
WEST OF THE DIVIDE...KBPI/KJAC/KPNA/KRKS ROUTES
THE MAIN HAZARD THROUGH THE PERIOD WILL BE LLWS ACROSS THE AREA.  
VFR CONDITIONS WILL PREVAIL THROUGH 06Z SATURDAY WITH AREAS OF 
MVFR/IFR CONDITIONS SPREADING SOUTH 08Z-12Z SATURDAY.
STRONG WEST WIND AT 50-60KT AT FL080-100 WILL CONTINUE TO CAUSE 
AREAS OF LLWS AND MDT-SVR TURBULENCE ACROSS THE AREA THROUGH FRIDAY 
NIGHT.  OCNL HIGHER MTN OBSCURATIONS IN -SN WILL CONTINUE VCNTY AND 
NORTH OF A KJAC-KCOD LINE THROUGH 00Z SATURDAY...AND THEN MTS ABOVE 
9KFT WILL BECOME MOSTLY OBSCURED IN -SN BY 12Z SATURDAY WITH AREAS 
OF IFR/MVFR -SN DEVELOPING OVER THE VALLEYS VCNTY KJAC-KAFO-KPNA.  

Cheyenne Aviation Discussion
Issued at 0509 UTC Friday, November 28, 2014

.AVIATION...(FOR THE 06Z TAFS THROUGH 06Z FRIDAY NIGHT)
ISSUED AT 1006 PM MST THU NOV 27 2014
VFR THROUGH NEXT 24 HOURS...BUT HAVE STRONG WINDS TO DEAL WITH FOR
OUR SOUTHEAST WYOMING AIRPORTS. MODERATE OR GREATER TURBULENCE ON
LANDINGS AND TAKEOFFS AS WIND SPEEDS OFF THE SURFACE CLOSE TO
60KTS FRIDAY. SHOULD SEE LOTS OF MOUNTAIN WAVE TURBULENCE OFF THE
LARAMIE RANGE...ESPECIALLY DURING THE DAYLIGHT HOURS.


* * * * * Nebraska * * * * *

METAR KIBM 280955Z AUTO 23008KT 10SM CLR 05/M04 A2994 RMK AO2
       T00481043
METAR KIBM 280935Z AUTO 24010KT 10SM CLR 06/M05 A2995 RMK AO2
       T00641047
METAR KIBM 280915Z AUTO 25015KT 10SM CLR 10/M05 A2994 RMK AO2
       T00971055

KSNY 280539Z 2806/2906 25013KT P6SM SCT150 SCT250
     FM281700 27018G26KT P6SM SCT250
     FM290000 27009KT P6SM SCT250

METAR KOGA 280955Z AUTO 24003KT 10SM CLR M03/M04 A2993 RMK AO2
       T10291040
METAR KOGA 280935Z AUTO 25007KT 10SM CLR M01/M02 A2994 RMK AO2
       T10081024
METAR KOGA 280915Z AUTO 27006KT 10SM CLR M01/M02 A2994 RMK AO2
       T10121025

METAR KIML 280953Z AUTO 27010KT 10SM CLR 04/M04 A2994 RMK AO2 SLP135
       T00391039
METAR KIML 280853Z AUTO 27010KT 10SM CLR 03/M04 A2996 RMK AO2 SLP144
       T00331039 56008
METAR KIML 280753Z AUTO 26009KT 10SM CLR 03/M03 A2996 RMK AO2 SLP148
       T00331033

KMCK 280542Z 2806/2906 26010KT P6SM FEW250
     FM290200 25006KT P6SM SCT250

North Platte Aviation Discussion
Issued at 1001 UTC Friday, November 28, 2014

.AVIATION...(FOR THE 06Z TAFS THROUGH 06Z FRIDAY NIGHT)
ISSUED AT 1109 PM CST THU NOV 27 2014
PATCHY MIDDLE AND HIGH CLOUD CEILINGS WILL CONTINUE TONIGHT... 
FRIDAY AND FRIDAY EVENING. WITH LIGHT SOUTHEAST WIND AND LOW LEVEL
HUMIDITY APPROACHING 100 PERCENT...PATCHY FOG IS POSSIBLE IN THE
RIVER VALLEYS AND OTHER LOW-LYING AREAS. HOWEVER FG/BR WILL BE
LOCALIZED. WEST WIND 260-290 WILL INCREASE TO 12-16KT LATE FRIDAY
MORNING OR EARLY AFTERNOON.


* * * * * Kansas * * * * *

KGLD 280542Z 2806/2906 26010KT P6SM SKC
     FM282100 23010KT P6SM SCT300
METAR KGLD 280953Z AUTO 24008KT 10SM CLR 03/M05 A2999 RMK AO2 SLP141
       T00331050
METAR KGLD 280853Z AUTO 23009KT 10SM CLR 02/M05 A3000 RMK AO2 SLP149
       T00221050 56010
METAR KGLD 280753Z AUTO 25006KT 10SM CLR 02/M04 A3001 RMK AO2 SLP152
       T00221044

KGCK 280525Z 2806/2906 23007KT P6SM FEW200
METAR KGCK 280954Z AUTO 30004KT 10SM CLR M01/M03 A3000 RMK AO2 SLP162
       T10111033
METAR KGCK 280854Z AUTO 26008KT 10SM CLR M01/M03 A3002 RMK AO2 SLP169
       T10111033 56010
METAR KGCK 280754Z AUTO 20004KT 10SM CLR 00/M03 A3002 RMK AO2 SLP170
       T00001033

METAR KLBL 280955Z AUTO 24004KT 10SM CLR M01/M06 A3004 RMK AO1
METAR KLBL 280935Z AUTO 23008KT 10SM CLR M01/M07 A3004 RMK AO1
METAR KLBL 280915Z AUTO 23006KT 10SM CLR 00/M06 A3004 RMK AO1

METAR KEHA 280948Z AUTO 26007KT 08/M06 RMK AO1 PK WND 10 000
       T00831055
METAR KEHA 280928Z AUTO 26007KT 09/M05 RMK AO1 PK WND 09 000
       T00941050
METAR KEHA 280908Z AUTO 26006KT 09/M04 RMK AO1 PK WND 09 000
       T00891044

Goodland (KGLD) 11/28/14 09:52 UTC
Radar VAD winds      Height      Dir/Spd(kt)
                   4000 FT MSL...229/010

Dodge City (KDDC) 11/28/14 09:48 UTC
Radar VAD winds      Height      Dir/Spd(kt)
                  11000 FT MSL...055/002
                  10500 FT MSL...000/002
                   8900 FT MSL...191/003
                   8000 FT MSL...357/003
                   7000 FT MSL...330/007
                   5400 FT MSL...323/003
                   5000 FT MSL...346/005
                   3600 FT MSL...285/004

Goodland Aviation Discussion
Issued at 0940 UTC Friday, November 28, 2014

.AVIATION...(FOR THE 06Z TAFS THROUGH 06Z FRIDAY NIGHT)
ISSUED AT 1042 PM MST THU NOV 27 2014
VFR CONDITIONS ARE EXPECTED THROUGH THE TAF PERIOD AT MCK AND GLD.

Dodge City Aviation Discussion
Issued at 0843 UTC Friday, November 28, 2014

.AVIATION...(FOR THE 06Z TAFS THROUGH 06Z FRIDAY NIGHT)
ISSUED AT 1100 PM CST THU NOV 27 2014
VFR CONDITIONS WILL PREVAIL AT ALL TAF SITES THROUGH FRIDAY
EVENING. WINDS WILL TURN SOUTHWESTERLY AT AROUND 5 TO 15KT
OVERNIGHT AS A LEE SIDE TROUGH IN EASTERN COLORADO BEGINS TO
PUSH TOWARD THE KANSAS BORDER. THE LIGHT WINDS WILL THEN
PERSIST THROUGH FRIDAY AFTERNOON AS THE LEE SIDE TROUGH
REMAINS NEAR THE VICINITY OF THE COLORADO BORDER.


* * * * * Texas/Oklahoma * * * * *

KGUY 280520Z 2806/2906 20010KT P6SM SCT250
     FM281600 23012KT P6SM SCT250=
METAR KGUY 280953Z AUTO 20005KT 10SM CLR 01/M03 A3002 RMK AO2 SLP154
       T00111033
METAR KGUY 280853Z AUTO 21006KT 10SM CLR 02/M03 A3004 RMK AO2 SLP157
       T00221028 56012
METAR KGUY 280753Z AUTO 21006KT 10SM CLR 03/M03 A3004 RMK AO2 SLP158
       T00281028

KDHT 280520Z 2806/2906 22010KT P6SM SCT250
     FM281500 25015KT P6SM SCT250
METAR KDHT 280953Z AUTO 23003KT 10SM CLR 04/M04 A3009 RMK AO2 SLP169
       T00441039
METAR KDHT 280853Z AUTO 24008KT 10SM CLR 03/M03 A3010 RMK AO2 SLP175
       T00281028 56010
METAR KDHT 280753Z AUTO 22009KT 10SM CLR 03/M03 A3010 RMK AO2 SLP176
       T00331028

Amarillo (KAMA) 11/28/14 09:48 UTC
Radar VAD winds      Height      Dir/Spd(kt)
                   6000 FT MSL...286/029
                   5000 FT MSL...316/022
                   4600 FT MSL...288/029
                   4000 FT MSL...259/022
                   4000 FT MSL...256/021


* * * * * New Mexico * * * * *

KFMN 280520Z 2806/2906 08007KT P6SM BKN200
METAR KFMN 280953Z AUTO 09006KT 10SM CLR M02/M07 A3030 RMK AO2 SLP258
       T10221067
METAR KFMN 280853Z AUTO 07006KT 10SM CLR M02/M07 A3030 RMK AO2 SLP259
       T10221072 58009
METAR KFMN 280753Z AUTO 08006KT 10SM CLR M02/M07 A3031 RMK AO2 SLP265
       T10171067

METAR KSKX 280955Z AUTO 32003KT 10SM CLR M05/M08 A3034 RMK AO1
METAR KSKX 280935Z AUTO 00000KT 10SM CLR M03/M07 A3034 RMK AO1
METAR KSKX 280915Z AUTO 10004KT 10SM CLR M03/M07 A3034 RMK AO1

KLVS 280520Z 2806/2906 VRB05KT P6SM BKN200
     FM281800 25011KT P6SM BKN250
      TEMPO 2820/2824 26013G21KT
     FM290100 22011KT P6SM SCT250
METAR KLVS 280953Z AUTO 21004KT 10SM CLR 07/M13 A3025 RMK AO2 SLP166
       T00671133
METAR KLVS 280853Z AUTO 27003KT 10SM CLR 06/M12 A3027 RMK AO2 SLP176
       T00561122 56007
METAR KLVS 280753Z AUTO 35003KT 10SM CLR 05/M11 A3027 RMK AO2 SLP177
       T00501111

METAR KRTN 280953Z AUTO 03004KT 10SM CLR M02/M07 A3020 RMK AO2 SLP202
       T10221072
METAR KRTN 280853Z AUTO 36006KT 10SM CLR 01/M07 A3022 RMK AO2 SLP198
       T00061072 56009
METAR KRTN 280753Z AUTO 07006KT 10SM CLR M01/M07 A3022 RMK AO2 SLP205
       T10111072

METAR KCAO 280955Z AUTO 26009KT 10SM CLR 09/M09 A3009 RMK AO2 SLP156
       T00941094
METAR KCAO 280855Z AUTO 29012KT 10SM CLR 14/M09 A3011 RMK AO2 SLP149
       T01441094 58008
METAR KCAO 280755Z AUTO 28012KT 10SM CLR 11/M09 A3012 RMK AO2 SLP156
       T01061089

Albuquerque (KABX) 11/28/14 09:48 UTC
Radar VAD winds      Height      Dir/Spd(kt)
                  25000 FT MSL...045/001
                  24000 FT MSL...347/000
                  22000 FT MSL...233/000
                  20000 FT MSL...294/002
                  18000 FT MSL...023/001
                  16000 FT MSL...001/001
                  13000 FT MSL...298/002
                  12000 FT MSL...296/002
                   9000 FT MSL...264/019
                   8000 FT MSL...255/005
                   7000 FT MSL...325/009
                   6900 FT MSL...168/006
                   6300 FT MSL...151/009

Albuquerque Aviation Discussion
Issued at 0541 UTC Friday, November 28, 2014

.AVIATION...
06Z TAF CYCLE
VFR CONDITIONS THE NEXT 24 HRS. HIGH CLOUDS WILL BE PREVALENT
ACROSS THE NORTHERN THIRD TO HALF. A FEW AFTERNOON BREEZES ALONG
AND EAST OF THE CENTRAL MTNS BUT GUSTS SHOULD REMAIN AOB 30 KT. 
50

* * * * * Winds and Temperatures Aloft Forecasts * * * * *

DATA BASED ON 280000Z    
VALID 280600Z   FOR USE 0500-0900Z. TEMPS NEG ABV 24000
FT  3000    6000   9000    12000   18000   24000  30000  34000  39000
SLC      2206    2420+08 2528+00 2644-15 2863-26 287641 288751 790160
BCE                      2520+04 2631-12 2843-24 294840 285350 307260
LND              2744+04 2754-01 2838-14 2849-26 286643 299153 299061
RKS              2734    2744-01 2850-16 2854-26 297742 299251 307859
GJT              2416+07 2626+02 2845-14 2948-25 296541 297451 318860
FMN              2612+09 2824+04 2936-13 3030-24 314940 305050 327260
ABQ              2711+11 2915+05 2919-13 3124-24 313540 324350 336459
MBW              2747    2855-02 2839-15 2949-27 306843 308952 306958
DEN              2922+06 3038+00 3036-14 2938-27 296343 308752 317259
PUB              2918+09 3128+01 3145-15 2940-27 305942 318351 315958
ALS                      2926+02 3045-13 2936-25 315541 306350 326961
TCC      2916    3023+12 3023+05 3028-14 3028-26 304541 315251 325158
BFF      3033    2923+04 2935-03 2938-15 2950-28 305944 306954 307658
GLD      3032    3039+06 2942-02 3036-14 3241-27 316243 317053 316357
GCK      2612+16 2919+08 2830+00 3140-14 3138-27 306043 317253 315858
GAG      2408+14 9900+07 2825+02 3038-15 3146-26 316342 317352 315359
AMA      2727    2916+12 2923+04 3033-14 2933-26 304941 315751 313558
---------------------------------------------------------------------

DATA BASED ON 280000Z    
VALID 281200Z   FOR USE 0900-1800Z. TEMPS NEG ABV 24000
FT  3000    6000   9000    12000   18000   24000  30000  34000  39000
SLC      2208    2522+08 2632+00 2651-14 2765-26 278042 289451 780560
BCE                      2527+03 2637-11 2740-24 285040 286049 287060
LND              2746+05 2750+01 2854-13 2850-26 288543 790251 790762
RKS              2735    2745-01 2758-14 2861-26 288642 299851 790361
GJT              2421+06 2629+02 2748-13 2854-24 296341 297550 298660
FMN              2614+08 2632+04 2835-12 3037-24 304340 305550 316960
ABQ              2615+11 2717+05 2824-12 3125-24 324140 325149 335959
MBW              2749    2857-02 2958-16 2864-27 299442 800550 309259
DEN              2826+07 2946+02 3050-12 3044-25 306742 307851 318962
PUB              2822+09 3031+03 3044-13 2932-26 316342 317751 319062
ALS                      2835+04 2945-12 3026-25 315541 326650 327760
TCC      2911    3017+12 3025+05 2933-13 2936-25 324640 325550 346061
BFF      2844    3044+05 2945-02 2853-16 2954-27 307943 308852 308560
GLD      2513    2618+07 3031-01 2946-15 2950-26 316942 317852 317561
GCK      9900+15 2814+08 2820+00 3037-14 3046-26 325442 326852 316361
GAG      2311+16 2916+09 2925+02 2939-14 3041-26 315042 336752 315660
AMA      3110    3019+11 3024+04 3036-14 2945-25 335340 326351 325061
---------------------------------------------------------------------

DATA BASED ON 280000Z    
VALID 290000Z   FOR USE 1800-0500Z. TEMPS NEG ABV 24000
FT  3000    6000   9000    12000   18000   24000  30000  34000  39000
SLC      2010    2427+06 2641-02 2657-17 2576-27 760041 761349 761560
BCE                      2635+01 2549-11 2558-24 256739 257248 268059
LND              2655+05 2763+00 2662-13 2664-26 269141 770450 770460
RKS              2637    2649-02 2665-15 2677-26 269540 760749 770960
GJT              2423+06 2635+00 2652-12 2661-24 267239 267848 278760
FMN              2719+08 2733+03 2740-11 2650-23 275539 275848 286559
ABQ              2723+11 2728+05 2629-10 2728-22 273338 284148 294959
MBW              2652    2758-01 2767-13 2772-25 278641 770450 780860
DEN              2716+07 2838+02 2755-10 2751-23 285940 287050 288762
PUB              2927+09 2942+03 2849-10 2535-24 286041 287050 298461
ALS                      2839+03 2744-10 2743-23 285240 285849 287060
TCC      2632    2730+13 2729+05 2827-11 2831-23 293838 304748 315558
BFF      2735    2948+06 2950-01 2861-15 2773-26 278742 780750 781460
GLD      2808    3018+08 2927+02 2946-13 2758-25 287241 298750 309960
GCK      2818+16 2819+10 2723+03 2842-11 2850-24 306041 307650 318559
GAG      2629+19 2727+12 2728+04 2939-12 2941-23 315240 316649 317059
AMA      2637    2732+13 2830+05 2931-12 2934-22 313939 315148 315859
---------------------------------------------------------------------

This product is updated automatically at approximately 10, 30 and 50
minutes after each hour, 24 hours per day, 7 days per week.  It may
become unavailable at times due to system outages without prior notice.
Users are advised to check the time at the top of the product to ensure
that it is current.  Furthermore, content and format of the product are
subject to change without prior notice.

Comments and suggestions are welcome and should be directed to one of
the addresses or phone numbers shown at the bottom of this page.  In
order to expedite a response to comments or suggestions, be sure to
mention your interest in the hot-air balloon forecast.

USA.gov is the U.S. government's official web portal to all federal, state and local government web resources and services.